Startpagina
METAR-TAF:

METAR-TAF

Vliegvelden :

Internationale Luchthaven Antwerpen

Antwerpen, België

breedte: 51-12N, lengte: 004-28E, hoogte: 12 m

Actueel weer

Dit bericht is 17 minuten geleden gemaakt, om 10:20 UTC
Wind 14 kt uit het westzuidwesten
Temperatuur 21°C
Vochtigheid 60%
Druk 1017 hPa
Zicht 10 km of meer
Verspreide wolken op 3000 ft

METAR: EBAW 191020Z 24014KT 9999 SCT030 21/13 Q1017 NOSIG

Tijdstip: 12:37 (10:37 UTC)

Verwachting

Dit bericht is 2 uur en het 7 minuten geleden gemaakt, om 08:30 UTC
Verwachting geldig van 19 om 09 UTC tot 19 om 18 UTC
Wind 10 kt uit het zuidzuidwesten met uitschieters tot 20 kt
Zicht 10 km of meer
Weinig wolken op 3000 ft
Verspreide wolken op 4000 ft

TAF: EBAW 190830Z 1909/1918 21010G20KT 9999 FEW030 SCT040

Waarnemingen en weersverwachtingen van meer dan 4000 vliegvelden (METAR en TAF).

De beschikbare stations zijn de gele en rode punten op de kaart.

Ga met uw muis naar het station om de naam te zien.

Klik dan om waarnemingen en weersverwachtingen te zien.

kaart wijzigen: klik op de groene knoppen met een zwart kruis om in te zoomen, op de groene knop met een streepje om uit te zoomen of op de groene pijlen voor aangrenzende kaarten.


METAR-TAF: